sensor_id;sensor_type;location;lat;lon;timestamp;pressure;altitude;pressure_sealevel;temperature;humidity
83104;BME280;72975;48.134;11.630;2023-12-04T00:01:08;95720.53;;;-7.14;77.67
83104;BME280;72975;48.134;11.630;2023-12-04T00:09:07;95720.84;;;-7.34;78.58
83104;BME280;72975;48.134;11.630;2023-12-04T00:35:13;95623.28;;;-7.82;78.27
83104;BME280;72975;48.134;11.630;2023-12-04T01:00:39;95690.00;;;-7.04;76.89
83104;BME280;72975;48.134;11.630;2023-12-04T01:04:22;95685.53;;;-7.02;76.38
83104;BME280;72975;48.134;11.630;2023-12-04T01:18:05;95570.84;;;-7.64;76.03
83104;BME280;72975;48.134;11.630;2023-12-04T01:59:00;95624.00;;;-7.12;75.11
83104;BME280;72975;48.134;11.630;2023-12-04T02:02:45;95615.53;;;-7.29;74.92
83104;BME280;72975;48.134;11.630;2023-12-04T02:22:09;95571.81;;;-7.23;74.50
83104;BME280;72975;48.134;11.630;2023-12-04T02:42:09;95563.97;;;-7.80;74.96
83104;BME280;72975;48.134;11.630;2023-12-04T02:46:10;95560.44;;;-8.30;75.83
83104;BME280;72975;48.134;11.630;2023-12-04T02:49:18;95555.44;;;-8.22;75.62
83104;BME280;72975;48.134;11.630;2023-12-04T02:53:12;95557.19;;;-8.23;74.80
83104;BME280;72975;48.134;11.630;2023-12-04T03:00:43;95545.00;;;-8.19;73.91
83104;BME280;72975;48.134;11.630;2023-12-04T03:20:40;95510.28;;;-7.83;72.92
83104;BME280;72975;48.134;11.630;2023-12-04T03:28:54;95506.59;;;-9.02;75.46
83104;BME280;72975;48.134;11.630;2023-12-04T03:32:35;95500.81;;;-8.59;74.49
83104;BME280;72975;48.134;11.630;2023-12-04T03:35:53;95498.47;;;-8.52;73.94
83104;BME280;72975;48.134;11.630;2023-12-04T03:39:25;95495.69;;;-8.41;74.00
83104;BME280;72975;48.134;11.630;2023-12-04T03:42:13;95491.25;;;-8.47;74.15
83104;BME280;72975;48.134;11.630;2023-12-04T03:49:21;95491.00;;;-8.79;75.18
83104;BME280;72975;48.134;11.630;2023-12-04T04:00:06;95483.41;;;-8.79;72.81
83104;BME280;72975;48.134;11.630;2023-12-04T04:03:41;95480.41;;;-9.28;72.42
83104;BME280;72975;48.134;11.630;2023-12-04T04:07:20;95468.81;;;-9.03;72.18
83104;BME280;72975;48.134;11.630;2023-12-04T04:10:46;95480.34;;;-9.18;72.33
83104;BME280;72975;48.134;11.630;2023-12-04T04:21:24;95463.69;;;-8.94;74.10
83104;BME280;72975;48.134;11.630;2023-12-04T04:24:38;95462.16;;;-8.87;73.04
83104;BME280;72975;48.134;11.630;2023-12-04T04:31:58;95452.06;;;-9.04;72.58
83104;BME280;72975;48.134;11.630;2023-12-04T04:35:09;95448.88;;;-9.24;72.52
83104;BME280;72975;48.134;11.630;2023-12-04T04:38:32;95451.03;;;-9.29;73.53
83104;BME280;72975;48.134;11.630;2023-12-04T04:42:15;95444.03;;;-9.17;74.05
83104;BME280;72975;48.134;11.630;2023-12-04T04:49:56;95458.91;;;-8.97;72.02
83104;BME280;72975;48.134;11.630;2023-12-04T04:52:48;95453.81;;;-9.50;72.62
83104;BME280;72975;48.134;11.630;2023-12-04T04:59:05;95453.88;;;-9.32;73.35
83104;BME280;72975;48.134;11.630;2023-12-04T05:02:16;95450.78;;;-9.08;73.33
83104;BME280;72975;48.134;11.630;2023-12-04T05:05:47;95435.75;;;-9.10;74.07
83104;BME280;72975;48.134;11.630;2023-12-04T05:12:21;95428.53;;;-8.87;75.27
83104;BME280;72975;48.134;11.630;2023-12-04T05:15:17;95407.69;;;-8.81;75.38
83104;BME280;72975;48.134;11.630;2023-12-04T05:18:40;95405.31;;;-8.82;75.64
83104;BME280;72975;48.134;11.630;2023-12-04T05:21:33;95411.91;;;-8.90;75.78
83104;BME280;72975;48.134;11.630;2023-12-04T05:24:32;95414.06;;;-8.95;75.46
83104;BME280;72975;48.134;11.630;2023-12-04T05:27:56;95406.94;;;-8.99;75.98
83104;BME280;72975;48.134;11.630;2023-12-04T05:30:55;95404.97;;;-9.05;75.62
83104;BME280;72975;48.134;11.630;2023-12-04T05:40:53;95399.72;;;-8.68;75.73
83104;BME280;72975;48.134;11.630;2023-12-04T05:44:04;95393.59;;;-8.83;76.21
83104;BME280;72975;48.134;11.630;2023-12-04T05:47:27;95387.28;;;-8.88;76.37
83104;BME280;72975;48.134;11.630;2023-12-04T05:51:00;95408.22;;;-8.77;76.51
83104;BME280;72975;48.134;11.630;2023-12-04T05:53:39;95401.78;;;-8.64;76.05
83104;BME280;72975;48.134;11.630;2023-12-04T05:56:12;95396.34;;;-8.77;76.13
83104;BME280;72975;48.134;11.630;2023-12-04T05:58:51;95396.91;;;-8.65;75.95
83104;BME280;72975;48.134;11.630;2023-12-04T06:01:39;95394.53;;;-8.67;76.28
83104;BME280;72975;48.134;11.630;2023-12-04T06:04:51;95395.81;;;-8.63;75.77
83104;BME280;72975;48.134;11.630;2023-12-04T06:11:17;95397.50;;;-8.71;76.53
83104;BME280;72975;48.134;11.630;2023-12-04T06:14:08;95381.22;;;-8.69;76.55
83104;BME280;72975;48.134;11.630;2023-12-04T06:17:06;95379.22;;;-8.65;76.30
83104;BME280;72975;48.134;11.630;2023-12-04T06:20:05;95364.91;;;-8.74;76.11
83104;BME280;72975;48.134;11.630;2023-12-04T06:27:03;95372.09;;;-8.62;75.97
83104;BME280;72975;48.134;11.630;2023-12-04T06:33:43;95370.13;;;-8.50;75.99
83104;BME280;72975;48.134;11.630;2023-12-04T06:36:58;95355.03;;;-8.34;75.46
83104;BME280;72975;48.134;11.630;2023-12-04T06:40:42;95349.97;;;-8.34;75.14
83104;BME280;72975;48.134;11.630;2023-12-04T06:43:10;95349.97;;;-8.34;75.43
83104;BME280;72975;48.134;11.630;2023-12-04T06:45:45;95347.09;;;-8.39;75.67
83104;BME280;72975;48.134;11.630;2023-12-04T06:48:36;95329.22;;;-8.29;75.41
83104;BME280;72975;48.134;11.630;2023-12-04T06:51:57;95329.56;;;-8.32;75.47
83104;BME280;72975;48.134;11.630;2023-12-04T06:54:59;95331.78;;;-8.21;74.88
83104;BME280;72975;48.134;11.630;2023-12-04T06:58:37;95336.13;;;-7.97;74.33
83104;BME280;72975;48.134;11.630;2023-12-04T07:02:40;95339.75;;;-8.50;75.35
83104;BME280;72975;48.134;11.630;2023-12-04T07:19:18;95316.69;;;-7.97;75.09
83104;BME280;72975;48.134;11.630;2023-12-04T07:22:55;95314.50;;;-7.92;74.61
83104;BME280;72975;48.134;11.630;2023-12-04T07:29:55;95301.19;;;-8.02;74.97
83104;BME280;72975;48.134;11.630;2023-12-04T07:33:24;95298.66;;;-7.86;74.56
83104;BME280;72975;48.134;11.630;2023-12-04T07:36:53;95293.91;;;-7.89;74.53
83104;BME280;72975;48.134;11.630;2023-12-04T07:41:03;95289.03;;;-7.82;74.00
83104;BME280;72975;48.134;11.630;2023-12-04T07:56:50;95285.41;;;-7.63;73.58
83104;BME280;72975;48.134;11.630;2023-12-04T10:41:32;95164.50;;;-3.86;67.27
83104;BME280;72975;48.134;11.630;2023-12-04T10:44:05;95160.44;;;-3.81;67.56
83104;BME280;72975;48.134;11.630;2023-12-04T10:46:37;95158.09;;;-3.54;68.01
83104;BME280;72975;48.134;11.630;2023-12-04T10:49:10;95165.44;;;-3.66;66.73
83104;BME280;72975;48.134;11.630;2023-12-04T10:51:39;95165.63;;;-3.89;68.54
83104;BME280;72975;48.134;11.630;2023-12-04T10:54:11;95173.84;;;-3.72;67.56
83104;BME280;72975;48.134;11.630;2023-12-04T10:56:43;95086.59;;;-4.59;69.08
83104;BME280;72975;48.134;11.630;2023-12-04T10:59:21;95142.22;;;-3.99;68.87
83104;BME280;72975;48.134;11.630;2023-12-04T11:01:56;95151.81;;;-3.80;68.85
83104;BME280;72975;48.134;11.630;2023-12-04T11:05:19;95150.13;;;-3.94;69.63
83104;BME280;72975;48.134;11.630;2023-12-04T11:08:02;95147.91;;;-3.76;69.25
83104;BME280;72975;48.134;11.630;2023-12-04T11:11:01;95139.59;;;-3.63;68.91
83104;BME280;72975;48.134;11.630;2023-12-04T11:14:02;95134.22;;;-3.96;70.02
83104;BME280;72975;48.134;11.630;2023-12-04T11:16:49;95141.06;;;-3.96;70.25
83104;BME280;72975;48.134;11.630;2023-12-04T11:22:16;95116.72;;;-3.78;69.60
83104;BME280;72975;48.134;11.630;2023-12-04T11:24:52;95109.34;;;-3.94;69.70
83104;BME280;72975;48.134;11.630;2023-12-04T11:27:25;95106.31;;;-4.04;70.63
83104;BME280;72975;48.134;11.630;2023-12-04T11:30:03;95096.00;;;-3.96;70.80
83104;BME280;72975;48.134;11.630;2023-12-04T11:32:44;95092.84;;;-3.98;70.35
83104;BME280;72975;48.134;11.630;2023-12-04T11:35:21;95085.72;;;-3.81;70.18
83104;BME280;72975;48.134;11.630;2023-12-04T11:38:04;95076.97;;;-3.72;70.00
83104;BME280;72975;48.134;11.630;2023-12-04T11:40:53;95082.25;;;-3.74;70.05
83104;BME280;72975;48.134;11.630;2023-12-04T11:43:27;95075.13;;;-3.85;70.75
83104;BME280;72975;48.134;11.630;2023-12-04T11:46:10;95072.75;;;-3.86;71.13
83104;BME280;72975;48.134;11.630;2023-12-04T11:48:38;95061.94;;;-3.88;71.43
83104;BME280;72975;48.134;11.630;2023-12-04T11:51:09;95054.81;;;-3.72;70.99
83104;BME280;72975;48.134;11.630;2023-12-04T11:54:06;95056.00;;;-3.68;70.92
83104;BME280;72975;48.134;11.630;2023-12-04T11:56:35;95065.66;;;-3.63;71.04
83104;BME280;72975;48.134;11.630;2023-12-04T11:59:08;95070.75;;;-3.91;71.86
83104;BME280;72975;48.134;11.630;2023-12-04T12:01:56;95067.59;;;-3.65;71.33
83104;BME280;72975;48.134;11.630;2023-12-04T12:04:30;95075.84;;;-3.63;70.75
83104;BME280;72975;48.134;11.630;2023-12-04T12:07:05;95079.84;;;-3.82;70.68
83104;BME280;72975;48.134;11.630;2023-12-04T12:09:45;95078.38;;;-3.70;70.95
83104;BME280;72975;48.134;11.630;2023-12-04T12:12:15;95083.50;;;-3.91;71.33
83104;BME280;72975;48.134;11.630;2023-12-04T12:14:43;95078.69;;;-3.79;70.55
83104;BME280;72975;48.134;11.630;2023-12-04T12:17:11;95080.91;;;-3.70;70.74
83104;BME280;72975;48.134;11.630;2023-12-04T12:19:42;95078.56;;;-3.71;71.54
83104;BME280;72975;48.134;11.630;2023-12-04T12:22:12;95071.25;;;-3.74;72.06
83104;BME280;72975;48.134;11.630;2023-12-04T12:24:40;95067.88;;;-3.81;71.74
83104;BME280;72975;48.134;11.630;2023-12-04T12:27:08;95062.16;;;-3.90;71.96
83104;BME280;72975;48.134;11.630;2023-12-04T12:29:37;95064.75;;;-3.49;70.51
83104;BME280;72975;48.134;11.630;2023-12-04T12:32:06;95060.56;;;-3.91;71.97
83104;BME280;72975;48.134;11.630;2023-12-04T12:34:43;95076.66;;;-3.56;71.46
83104;BME280;72975;48.134;11.630;2023-12-04T12:37:13;95072.84;;;-3.73;71.53
83104;BME280;72975;48.134;11.630;2023-12-04T12:39:41;95077.47;;;-3.55;70.91
83104;BME280;72975;48.134;11.630;2023-12-04T12:42:09;95069.69;;;-3.75;71.23
83104;BME280;72975;48.134;11.630;2023-12-04T12:44:40;95054.53;;;-3.83;71.43
83104;BME280;72975;48.134;11.630;2023-12-04T12:47:17;95051.91;;;-3.69;72.11
83104;BME280;72975;48.134;11.630;2023-12-04T12:49:45;95066.00;;;-3.66;71.86
83104;BME280;72975;48.134;11.630;2023-12-04T12:52:19;95075.31;;;-3.58;71.85
83104;BME280;72975;48.134;11.630;2023-12-04T12:54:52;95004.25;;;-3.96;71.51
83104;BME280;72975;48.134;11.630;2023-12-04T12:57:20;95072.16;;;-3.60;72.21
83104;BME280;72975;48.134;11.630;2023-12-04T12:59:48;95063.00;;;-3.48;71.17
83104;BME280;72975;48.134;11.630;2023-12-04T13:02:16;95052.19;;;-3.50;71.60
83104;BME280;72975;48.134;11.630;2023-12-04T13:04:44;95060.91;;;-3.38;71.25
83104;BME280;72975;48.134;11.630;2023-12-04T13:07:12;95057.03;;;-3.27;72.03
83104;BME280;72975;48.134;11.630;2023-12-04T13:09:40;95047.22;;;-3.24;71.51
83104;BME280;72975;48.134;11.630;2023-12-04T13:12:21;95041.69;;;-2.86;72.07
83104;BME280;72975;48.134;11.630;2023-12-04T13:14:56;95037.41;;;-2.73;72.66
83104;BME280;72975;48.134;11.630;2023-12-04T13:17:28;95016.41;;;-3.22;71.50
83104;BME280;72975;48.134;11.630;2023-12-04T13:19:56;95016.56;;;-3.37;72.66
83104;BME280;72975;48.134;11.630;2023-12-04T13:22:23;95003.09;;;-3.24;72.22
83104;BME280;72975;48.134;11.630;2023-12-04T13:24:57;95008.03;;;-3.16;72.29
83104;BME280;72975;48.134;11.630;2023-12-04T13:27:29;94993.44;;;-3.36;72.65
83104;BME280;72975;48.134;11.630;2023-12-04T13:30:39;94985.19;;;-3.31;72.62
83104;BME280;72975;48.134;11.630;2023-12-04T13:33:15;94980.31;;;-3.26;72.40
83104;BME280;72975;48.134;11.630;2023-12-04T13:35:55;94970.69;;;-3.24;72.05
83104;BME280;72975;48.134;11.630;2023-12-04T13:38:26;94974.13;;;-3.51;72.88
83104;BME280;72975;48.134;11.630;2023-12-04T13:41:08;94974.13;;;-3.45;72.26
83104;BME280;72975;48.134;11.630;2023-12-04T13:43:46;94960.41;;;-3.50;72.32
83104;BME280;72975;48.134;11.630;2023-12-04T13:46:26;94952.88;;;-3.65;72.56
83104;BME280;72975;48.134;11.630;2023-12-04T13:49:02;94951.81;;;-3.84;73.24
83104;BME280;72975;48.134;11.630;2023-12-04T13:51:45;94952.31;;;-3.54;72.69
83104;BME280;72975;48.134;11.630;2023-12-04T13:54:16;94951.47;;;-3.68;72.15
83104;BME280;72975;48.134;11.630;2023-12-04T13:56:49;94943.44;;;-3.71;72.00
83104;BME280;72975;48.134;11.630;2023-12-04T13:59:25;94941.69;;;-3.64;72.35
83104;BME280;72975;48.134;11.630;2023-12-04T14:01:57;94950.72;;;-3.68;72.35
83104;BME280;72975;48.134;11.630;2023-12-04T14:04:29;94947.06;;;-3.87;72.67
83104;BME280;72975;48.134;11.630;2023-12-04T14:07:02;94941.94;;;-3.93;72.90
83104;BME280;72975;48.134;11.630;2023-12-04T14:09:32;94947.91;;;-3.80;72.34
83104;BME280;72975;48.134;11.630;2023-12-04T14:12:13;94947.06;;;-3.46;71.28
83104;BME280;72975;48.134;11.630;2023-12-04T14:14:43;94953.53;;;-3.50;71.62
83104;BME280;72975;48.134;11.630;2023-12-04T14:17:14;94955.47;;;-3.58;71.45
83104;BME280;72975;48.134;11.630;2023-12-04T14:19:48;94960.22;;;-3.49;70.95
83104;BME280;72975;48.134;11.630;2023-12-04T14:22:17;94966.47;;;-3.51;70.77
83104;BME280;72975;48.134;11.630;2023-12-04T14:24:45;94960.78;;;-3.53;71.51
83104;BME280;72975;48.134;11.630;2023-12-04T14:27:14;94954.78;;;-3.74;72.13
83104;BME280;72975;48.134;11.630;2023-12-04T14:29:42;94952.66;;;-3.70;71.83
83104;BME280;72975;48.134;11.630;2023-12-04T14:32:09;94942.06;;;-3.67;71.94
83104;BME280;72975;48.134;11.630;2023-12-04T14:35:14;94945.09;;;-3.44;71.29
83104;BME280;72975;48.134;11.630;2023-12-04T14:37:46;94948.72;;;-3.73;71.67
83104;BME280;72975;48.134;11.630;2023-12-04T14:40:14;94944.22;;;-4.12;72.49
83104;BME280;72975;48.134;11.630;2023-12-04T14:42:44;94944.78;;;-4.44;73.79
83104;BME280;72975;48.134;11.630;2023-12-04T14:45:14;94951.56;;;-4.51;74.14
83104;BME280;72975;48.134;11.630;2023-12-04T14:47:44;94948.50;;;-4.40;73.88
83104;BME280;72975;48.134;11.630;2023-12-04T14:50:12;94948.19;;;-4.30;73.48
83104;BME280;72975;48.134;11.630;2023-12-04T14:52:40;94934.16;;;-4.48;73.55
83104;BME280;72975;48.134;11.630;2023-12-04T14:55:19;94957.78;;;-4.54;73.46
83104;BME280;72975;48.134;11.630;2023-12-04T14:57:53;94958.47;;;-4.17;73.19
83104;BME280;72975;48.134;11.630;2023-12-04T15:00:56;94950.13;;;-4.60;73.59
83104;BME280;72975;48.134;11.630;2023-12-04T15:03:26;94950.91;;;-4.60;74.68
83104;BME280;72975;48.134;11.630;2023-12-04T15:06:26;94955.03;;;-4.80;74.69
83104;BME280;72975;48.134;11.630;2023-12-04T15:09:25;94948.81;;;-4.78;74.22
83104;BME280;72975;48.134;11.630;2023-12-04T15:12:19;94943.59;;;-4.91;75.03
83104;BME280;72975;48.134;11.630;2023-12-04T15:15:02;94942.97;;;-4.93;74.80
83104;BME280;72975;48.134;11.630;2023-12-04T15:18:00;94939.81;;;-4.95;74.94
83104;BME280;72975;48.134;11.630;2023-12-04T15:20:47;94934.50;;;-5.21;75.77
83104;BME280;72975;48.134;11.630;2023-12-04T15:23:22;94923.16;;;-5.19;75.55
83104;BME280;72975;48.134;11.630;2023-12-04T15:25:57;94925.53;;;-4.96;74.79
83104;BME280;72975;48.134;11.630;2023-12-04T15:28:56;94932.84;;;-5.29;75.41
83104;BME280;72975;48.134;11.630;2023-12-04T15:31:24;94936.78;;;-5.05;75.37
83104;BME280;72975;48.134;11.630;2023-12-04T15:34:02;94916.50;;;-4.77;74.40
83104;BME280;72975;48.134;11.630;2023-12-04T15:36:52;94919.91;;;-4.91;74.67
83104;BME280;72975;48.134;11.630;2023-12-04T15:39:51;94917.84;;;-4.81;74.36
83104;BME280;72975;48.134;11.630;2023-12-04T15:42:39;94902.75;;;-5.04;74.90
83104;BME280;72975;48.134;11.630;2023-12-04T15:45:14;94907.25;;;-5.06;74.97
83104;BME280;72975;48.134;11.630;2023-12-04T15:47:49;94898.63;;;-4.84;74.42
83104;BME280;72975;48.134;11.630;2023-12-04T15:50:17;94915.03;;;-4.86;74.32
83104;BME280;72975;48.134;11.630;2023-12-04T15:52:55;94916.53;;;-4.98;75.23
83104;BME280;72975;48.134;11.630;2023-12-04T15:55:28;94917.00;;;-5.09;75.58
83104;BME280;72975;48.134;11.630;2023-12-04T15:58:06;94919.59;;;-5.03;75.75
83104;BME280;72975;48.134;11.630;2023-12-04T16:00:45;94920.84;;;-4.71;74.78
83104;BME280;72975;48.134;11.630;2023-12-04T16:03:23;94919.22;;;-4.79;75.57
83104;BME280;72975;48.134;11.630;2023-12-04T16:06:13;94915.63;;;-4.63;74.22
83104;BME280;72975;48.134;11.630;2023-12-04T16:09:05;94913.84;;;-4.90;75.61
83104;BME280;72975;48.134;11.630;2023-12-04T16:11:35;94903.03;;;-4.99;76.42
83104;BME280;72975;48.134;11.630;2023-12-04T16:14:17;94891.38;;;-5.08;76.31
83104;BME280;72975;48.134;11.630;2023-12-04T16:17:23;94891.25;;;-5.00;75.96
83104;BME280;72975;48.134;11.630;2023-12-04T16:20:07;94882.88;;;-4.94;75.66
83104;BME280;72975;48.134;11.630;2023-12-04T16:22:41;94879.91;;;-4.97;76.31
83104;BME280;72975;48.134;11.630;2023-12-04T16:25:13;94876.94;;;-4.80;75.31
83104;BME280;72975;48.134;11.630;2023-12-04T16:27:45;94885.09;;;-5.12;76.81
83104;BME280;72975;48.134;11.630;2023-12-04T16:30:17;94874.66;;;-4.96;76.47
83104;BME280;72975;48.134;11.630;2023-12-04T16:32:48;94874.44;;;-4.73;75.71
83104;BME280;72975;48.134;11.630;2023-12-04T16:35:16;94863.94;;;-4.63;74.65
83104;BME280;72975;48.134;11.630;2023-12-04T16:37:44;94870.13;;;-5.00;76.57
83104;BME280;72975;48.134;11.630;2023-12-04T16:40:14;94855.41;;;-5.26;76.93
83104;BME280;72975;48.134;11.630;2023-12-04T16:42:45;94873.09;;;-5.18;76.63
83104;BME280;72975;48.134;11.630;2023-12-04T16:45:31;94880.78;;;-4.90;76.14
83104;BME280;72975;48.134;11.630;2023-12-04T16:48:05;94879.66;;;-5.09;76.56
83104;BME280;72975;48.134;11.630;2023-12-04T16:50:38;94872.66;;;-4.79;76.98
83104;BME280;72975;48.134;11.630;2023-12-04T16:53:06;94856.13;;;-4.62;75.52
83104;BME280;72975;48.134;11.630;2023-12-04T16:55:34;94850.59;;;-4.93;75.88
83104;BME280;72975;48.134;11.630;2023-12-04T16:58:01;94854.56;;;-5.12;76.56
83104;BME280;72975;48.134;11.630;2023-12-04T17:00:32;94857.91;;;-5.11;75.97
83104;BME280;72975;48.134;11.630;2023-12-04T17:03:01;94861.53;;;-4.99;76.00
83104;BME280;72975;48.134;11.630;2023-12-04T17:05:31;94788.72;;;-5.49;75.93
83104;BME280;72975;48.134;11.630;2023-12-04T17:07:59;94859.97;;;-5.22;76.79
83104;BME280;72975;48.134;11.630;2023-12-04T17:10:27;94845.69;;;-4.95;76.13
83104;BME280;72975;48.134;11.630;2023-12-04T17:12:56;94838.16;;;-5.09;76.14
83104;BME280;72975;48.134;11.630;2023-12-04T17:15:23;94840.13;;;-5.05;76.19
83104;BME280;72975;48.134;11.630;2023-12-04T17:17:51;94841.41;;;-5.16;76.46
83104;BME280;72975;48.134;11.630;2023-12-04T17:20:21;94844.81;;;-5.08;76.44
83104;BME280;72975;48.134;11.630;2023-12-04T17:22:52;94771.19;;;-5.44;76.50
83104;BME280;72975;48.134;11.630;2023-12-04T17:25:19;94841.69;;;-5.10;77.35
83104;BME280;72975;48.134;11.630;2023-12-04T17:27:49;94838.63;;;-4.99;77.38
83104;BME280;72975;48.134;11.630;2023-12-04T17:30:16;94813.78;;;-4.97;77.84
83104;BME280;72975;48.134;11.630;2023-12-04T17:32:44;94812.63;;;-4.95;77.78
83104;BME280;72975;48.134;11.630;2023-12-04T17:35:17;94809.06;;;-5.00;77.86
83104;BME280;72975;48.134;11.630;2023-12-04T17:37:57;94803.03;;;-4.99;78.78
83104;BME280;72975;48.134;11.630;2023-12-04T17:40:35;94800.22;;;-5.04;78.80
83104;BME280;72975;48.134;11.630;2023-12-04T17:43:04;94796.53;;;-5.02;79.61
83104;BME280;72975;48.134;11.630;2023-12-04T17:45:34;94798.28;;;-5.02;79.51
83104;BME280;72975;48.134;11.630;2023-12-04T17:48:02;94801.66;;;-4.95;78.56
83104;BME280;72975;48.134;11.630;2023-12-04T17:50:31;94813.38;;;-5.01;80.15
83104;BME280;72975;48.134;11.630;2023-12-04T17:53:10;94811.44;;;-4.99;79.62
83104;BME280;72975;48.134;11.630;2023-12-04T17:55:37;94806.75;;;-4.95;79.44
83104;BME280;72975;48.134;11.630;2023-12-04T17:58:05;94802.06;;;-4.98;80.11
83104;BME280;72975;48.134;11.630;2023-12-04T18:00:46;94789.19;;;-4.90;80.66
83104;BME280;72975;48.134;11.630;2023-12-04T18:03:18;94787.44;;;-4.90;80.37
83104;BME280;72975;48.134;11.630;2023-12-04T18:05:57;94777.88;;;-4.81;81.00
83104;BME280;72975;48.134;11.630;2023-12-04T18:08:25;94784.56;;;-4.73;81.36
83104;BME280;72975;48.134;11.630;2023-12-04T18:10:55;94773.22;;;-4.78;80.93
83104;BME280;72975;48.134;11.630;2023-12-04T18:13:23;94788.31;;;-4.76;80.27
83104;BME280;72975;48.134;11.630;2023-12-04T18:15:51;94787.44;;;-4.90;80.33
83104;BME280;72975;48.134;11.630;2023-12-04T18:18:22;94796.50;;;-4.81;80.04
83104;BME280;72975;48.134;11.630;2023-12-04T18:20:52;94795.00;;;-4.68;81.04
83104;BME280;72975;48.134;11.630;2023-12-04T18:23:20;94796.66;;;-4.82;79.68
83104;BME280;72975;48.134;11.630;2023-12-04T18:25:50;94799.50;;;-4.98;80.17
83104;BME280;72975;48.134;11.630;2023-12-04T18:28:18;94787.91;;;-4.73;79.26
83104;BME280;72975;48.134;11.630;2023-12-04T18:30:45;94776.81;;;-4.65;79.25
83104;BME280;72975;48.134;11.630;2023-12-04T18:33:16;94782.47;;;-4.63;79.08
83104;BME280;72975;48.134;11.630;2023-12-04T18:35:51;94773.28;;;-4.64;79.57
83104;BME280;72975;48.134;11.630;2023-12-04T18:38:26;94778.03;;;-4.89;79.79
83104;BME280;72975;48.134;11.630;2023-12-04T18:40:56;94780.28;;;-4.73;80.30
83104;BME280;72975;48.134;11.630;2023-12-04T18:43:29;94783.06;;;-4.68;80.04
83104;BME280;72975;48.134;11.630;2023-12-04T18:45:57;94789.41;;;-4.51;79.37
83104;BME280;72975;48.134;11.630;2023-12-04T18:48:27;94783.28;;;-4.63;79.55
83104;BME280;72975;48.134;11.630;2023-12-04T18:50:58;94775.16;;;-4.45;78.99
83104;BME280;72975;48.134;11.630;2023-12-04T18:53:28;94698.13;;;-5.01;79.59
83104;BME280;72975;48.134;11.630;2023-12-04T18:55:55;94779.94;;;-4.63;80.25
83104;BME280;72975;48.134;11.630;2023-12-04T18:58:24;94779.66;;;-4.41;80.27
83104;BME280;72975;48.134;11.630;2023-12-04T19:00:54;94777.56;;;-4.30;79.29
83104;BME280;72975;48.134;11.630;2023-12-04T19:03:22;94778.69;;;-4.39;80.10
83104;BME280;72975;48.134;11.630;2023-12-04T19:05:50;94773.47;;;-4.25;79.75
83104;BME280;72975;48.134;11.630;2023-12-04T19:11:12;94775.00;;;-4.37;80.07
83104;BME280;72975;48.134;11.630;2023-12-04T19:14:19;94779.75;;;-4.21;80.54
83104;BME280;72975;48.134;11.630;2023-12-04T19:17:07;94776.06;;;-4.12;80.53
83104;BME280;72975;48.134;11.630;2023-12-04T19:19:49;94769.41;;;-4.13;80.07
83104;BME280;72975;48.134;11.630;2023-12-04T19:22:24;94763.28;;;-4.25;80.12
83104;BME280;72975;48.134;11.630;2023-12-04T19:25:10;94762.75;;;-4.07;80.60
83104;BME280;72975;48.134;11.630;2023-12-04T19:28:10;94757.50;;;-3.92;80.10
83104;BME280;72975;48.134;11.630;2023-12-04T19:31:30;94762.19;;;-4.02;80.38
83104;BME280;72975;48.134;11.630;2023-12-04T19:34:20;94755.75;;;-3.92;79.96
83104;BME280;72975;48.134;11.630;2023-12-04T19:37:53;94753.19;;;-3.85;78.97
83104;BME280;72975;48.134;11.630;2023-12-04T19:41:08;94743.97;;;-3.93;79.56
83104;BME280;72975;48.134;11.630;2023-12-04T19:44:11;94746.53;;;-3.86;79.40
83104;BME280;72975;48.134;11.630;2023-12-04T19:47:36;94740.66;;;-3.87;79.88
83104;BME280;72975;48.134;11.630;2023-12-04T19:50:55;94740.28;;;-3.84;79.77
83104;BME280;72975;48.134;11.630;2023-12-04T20:00:23;94746.78;;;-3.61;79.89
83104;BME280;72975;48.134;11.630;2023-12-04T20:03:27;94729.31;;;-3.71;79.24
83104;BME280;72975;48.134;11.630;2023-12-04T20:06:20;94740.88;;;-3.62;79.32
83104;BME280;72975;48.134;11.630;2023-12-04T20:08:57;94685.94;;;-4.04;79.52
83104;BME280;72975;48.134;11.630;2023-12-04T20:12:28;94739.69;;;-3.73;79.19
83104;BME280;72975;48.134;11.630;2023-12-04T20:24:57;94731.66;;;-3.56;79.74
83104;BME280;72975;48.134;11.630;2023-12-04T20:29:03;94727.34;;;-3.56;79.63
83104;BME280;72975;48.134;11.630;2023-12-04T20:51:54;94702.44;;;-3.54;78.91
83104;BME280;72975;48.134;11.630;2023-12-04T21:03:12;94717.16;;;-3.62;78.81
83104;BME280;72975;48.134;11.630;2023-12-04T21:05:47;94706.34;;;-3.78;78.67
83104;BME280;72975;48.134;11.630;2023-12-04T21:08:42;94694.38;;;-3.77;78.72
83104;BME280;72975;48.134;11.630;2023-12-04T21:11:19;94693.22;;;-3.61;78.83
83104;BME280;72975;48.134;11.630;2023-12-04T21:13:58;94682.25;;;-3.55;78.36
83104;BME280;72975;48.134;11.630;2023-12-04T21:16:33;94683.03;;;-3.48;78.11
83104;BME280;72975;48.134;11.630;2023-12-04T21:19:21;94681.44;;;-3.56;78.40
83104;BME280;72975;48.134;11.630;2023-12-04T21:22:07;94684.59;;;-3.54;78.64
83104;BME280;72975;48.134;11.630;2023-12-04T21:24:45;94683.81;;;-3.48;78.23
83104;BME280;72975;48.134;11.630;2023-12-04T21:27:19;94673.22;;;-3.51;79.17
83104;BME280;72975;48.134;11.630;2023-12-04T21:29:52;94675.19;;;-3.53;78.38
83104;BME280;72975;48.134;11.630;2023-12-04T21:32:26;94672.84;;;-3.61;78.78
83104;BME280;72975;48.134;11.630;2023-12-04T21:34:57;94671.47;;;-3.57;78.79
83104;BME280;72975;48.134;11.630;2023-12-04T21:44:36;94670.47;;;-3.56;78.46
83104;BME280;72975;48.134;11.630;2023-12-04T21:47:18;94671.28;;;-3.49;78.47
83104;BME280;72975;48.134;11.630;2023-12-04T21:50:03;94673.03;;;-3.63;79.37
83104;BME280;72975;48.134;11.630;2023-12-04T21:52:41;94664.78;;;-3.52;78.94
83104;BME280;72975;48.134;11.630;2023-12-04T21:55:09;94649.31;;;-3.50;78.78
83104;BME280;72975;48.134;11.630;2023-12-04T21:57:42;94648.69;;;-3.46;78.67
83104;BME280;72975;48.134;11.630;2023-12-04T22:00:14;94652.25;;;-3.47;78.72
83104;BME280;72975;48.134;11.630;2023-12-04T22:02:51;94649.50;;;-3.52;79.33
83104;BME280;72975;48.134;11.630;2023-12-04T22:05:21;94645.19;;;-3.51;79.25
83104;BME280;72975;48.134;11.630;2023-12-04T22:07:54;94644.78;;;-3.48;79.60